Time;durP1;ratioP1;P1;durP2;ratioP2;P2;SDS_P1;SDS_P2;PMS_P1;PMS_P2;Temp;Humidity;BMP_temperature;BMP_pressure;BME280_temperature;BME280_humidity;BME280_pressure;Samples;Min_cycle;Max_cycle;Signal;HPM_P1;HPM_P2
2022/03/20 12:31:12;;;;;;;30.55;21.38;;;;;;;;;;5102951;27;20874;-61
2022/03/20 12:33:38;;;;;;;28.77;20.45;;;;;;;;;;5094890;28;20439;-61
2022/03/20 12:36:24;;;;;;;29.40;23.17;;;;;;;;;;5095437;28;20101;-61
2022/03/20 12:38:50;;;;;;;28.67;21.17;;;;;;;;;;5100853;28;20230;-61
2022/03/20 12:41:19;;;;;;;28.30;21.80;;;;;;;;;;5078014;28;20040;-61
2022/03/20 12:43:57;;;;;;;29.35;21.90;;;;;;;;;;5084770;28;20048;-61
2022/03/20 12:46:24;;;;;;;31.17;22.48;;;;;;;;;;5066533;28;20324;-62
2022/03/20 12:48:52;;;;;;;30.75;20.27;;;;;;;;;;5089289;28;20463;-62
2022/03/20 12:51:24;;;;;;;35.85;21.52;;;;;;;;;;5063392;28;20048;-62
2022/03/20 12:53:52;;;;;;;31.90;22.98;;;;;;;;;;5079918;28;20037;-62
2022/03/20 12:56:28;;;;;;;32.60;22.73;;;;;;;;;;5083096;28;20044;-61
2022/03/20 12:58:55;;;;;;;29.33;22.13;;;;;;;;;;5062846;28;20132;-61
2022/03/20 13:01:21;;;;;;;30.40;21.02;;;;;;;;;;5080734;28;20487;-62
2022/03/20 13:03:48;;;;;;;30.67;22.75;;;;;;;;;;5085733;28;20069;-62
2022/03/20 13:06:16;;;;;;;30.25;21.63;;;;;;;;;;5080400;28;20052;-62
2022/03/20 13:09:01;;;;;;;32.03;21.63;;;;;;;;;;5083951;28;20058;-62
2022/03/20 13:11:52;;;;;;;29.45;20.75;;;;;;;;;;5085982;28;21499;-62
2022/03/20 13:14:18;;;;;;;28.42;20.70;;;;;;;;;;5067570;28;20048;-62
2022/03/20 13:16:55;;;;;;;31.70;20.67;;;;;;;;;;5087333;28;20043;-62
2022/03/20 13:19:25;;;;;;;32.53;21.77;;;;;;;;;;5102552;28;20042;-62
2022/03/20 13:21:51;;;;;;;33.72;21.33;;;;;;;;;;5090620;28;20134;-62
2022/03/20 13:24:31;;;;;;;30.35;21.25;;;;;;;;;;5098994;28;20040;-61
2022/03/20 13:26:58;;;;;;;33.72;21.33;;;;;;;;;;5082579;28;20040;-62
2022/03/20 13:29:24;;;;;;;32.42;22.55;;;;;;;;;;5059379;28;20423;-62
2022/03/20 13:32:09;;;;;;;30.80;21.38;;;;;;;;;;5065063;28;20036;-62
2022/03/20 13:34:41;;;;;;;29.70;21.20;;;;;;;;;;5058807;28;20177;-62
2022/03/20 13:37:10;;;;;;;30.98;21.50;;;;;;;;;;5055753;28;20037;-60
2022/03/20 13:39:37;;;;;;;27.40;19.80;;;;;;;;;;5059982;28;20041;-62
2022/03/20 13:42:15;;;;;;;29.15;20.02;;;;;;;;;;5056411;28;20110;-62
2022/03/20 13:44:41;;;;;;;30.73;21.75;;;;;;;;;;5047586;28;20033;-61
2022/03/20 13:47:07;;;;;;;39.10;21.98;;;;;;;;;;5051304;28;20039;-62
2022/03/20 13:49:34;;;;;;;29.65;20.02;;;;;;;;;;5046399;28;20091;-61
2022/03/20 13:52:00;;;;;;;30.33;21.13;;;;;;;;;;5048492;28;20048;-61
2022/03/20 13:54:26;;;;;;;32.53;21.70;;;;;;;;;;5048816;28;20029;-61
2022/03/20 13:57:05;;;;;;;32.95;21.88;;;;;;;;;;5052665;28;20049;-61
2022/03/20 13:59:33;;;;;;;33.05;21.83;;;;;;;;;;5055894;28;20124;-61
2022/03/20 14:02:01;;;;;;;29.10;20.15;;;;;;;;;;5046728;28;20546;-61
2022/03/20 14:04:27;;;;;;;31.92;22.73;;;;;;;;;;5047409;28;20454;-61
2022/03/20 14:06:57;;;;;;;33.72;21.67;;;;;;;;;;5078027;28;20041;-61
2022/03/20 14:09:31;;;;;;;31.73;21.48;;;;;;;;;;5048264;28;20042;-61
2022/03/20 14:11:58;;;;;;;28.88;21.27;;;;;;;;;;5061011;28;20052;-62
2022/03/20 14:14:44;;;;;;;36.67;22.88;;;;;;;;;;5050800;28;20056;-62
2022/03/20 14:17:10;;;;;;;33.53;21.52;;;;;;;;;;5049762;28;20063;-61
2022/03/20 14:19:47;;;;;;;33.00;22.10;;;;;;;;;;5049641;28;20091;-61
2022/03/20 14:22:13;;;;;;;33.10;21.90;;;;;;;;;;5045239;28;20049;-61
2022/03/20 14:24:53;;;;;;;35.45;22.67;;;;;;;;;;5040284;28;20048;-61
2022/03/20 14:27:27;;;;;;;37.35;21.58;;;;;;;;;;5042546;28;20101;-61
2022/03/20 14:41:01;;;;;;;33.67;22.42;;;;;;;;;;5062687;28;20151;-61
2022/03/20 14:43:28;;;;;;;33.38;21.27;;;;;;;;;;5059719;28;20076;-61
2022/03/20 14:45:56;;;;;;;37.33;23.65;;;;;;;;;;5047714;28;20411;-60
2022/03/20 14:48:22;;;;;;;31.05;20.98;;;;;;;;;;5069421;28;20033;-61
2022/03/20 14:50:49;;;;;;;32.05;22.13;;;;;;;;;;5052380;28;20463;-61
2022/03/20 14:53:22;;;;;;;36.95;22.08;;;;;;;;;;5070744;28;20177;-61
2022/03/20 14:55:48;;;;;;;34.65;21.80;;;;;;;;;;5065907;28;20068;-61
2022/03/20 14:58:15;;;;;;;31.42;21.30;;;;;;;;;;5066242;28;20041;-60
2022/03/20 15:00:41;;;;;;;30.58;20.92;;;;;;;;;;5049179;28;20044;-61
2022/03/20 15:03:08;;;;;;;32.33;21.73;;;;;;;;;;5068215;28;20048;-61
2022/03/20 15:05:34;;;;;;;32.88;21.80;;;;;;;;;;5068424;28;20045;-60
2022/03/20 15:13:30;;;;;;;35.05;22.50;;;;;;;;;;5052059;28;20088;-60
2022/03/20 15:15:56;;;;;;;33.67;20.88;;;;;;;;;;5070954;28;20124;-61
2022/03/20 15:18:22;;;;;;;34.65;22.05;;;;;;;;;;5051886;28;20036;-61
2022/03/20 15:20:48;;;;;;;36.17;21.02;;;;;;;;;;5062964;28;20072;-61
2022/03/20 15:23:15;;;;;;;31.50;21.35;;;;;;;;;;5063381;28;20043;-60
2022/03/20 15:25:42;;;;;;;35.08;23.85;;;;;;;;;;5060811;28;20464;-61
2022/03/20 15:28:09;;;;;;;33.65;22.42;;;;;;;;;;5082679;28;20399;-60
2022/03/20 15:30:36;;;;;;;35.17;23.52;;;;;;;;;;5070550;28;20394;-61
2022/03/20 15:33:03;;;;;;;35.70;23.17;;;;;;;;;;5074892;28;20083;-60
2022/03/20 15:35:30;;;;;;;39.22;25.35;;;;;;;;;;5073520;28;20101;-60
2022/03/20 15:37:57;;;;;;;37.25;24.85;;;;;;;;;;5072273;28;20174;-61
2022/03/20 15:40:23;;;;;;;37.55;23.95;;;;;;;;;;5069904;28;20047;-60
2022/03/20 15:42:50;;;;;;;40.08;25.20;;;;;;;;;;5070653;28;20394;-60
2022/03/20 15:45:16;;;;;;;37.00;25.67;;;;;;;;;;5069628;28;20181;-60
2022/03/20 15:47:42;;;;;;;33.08;22.73;;;;;;;;;;5069412;28;20045;-60
2022/03/20 15:50:10;;;;;;;37.10;23.10;;;;;;;;;;5051598;28;20047;-60
2022/03/20 15:52:36;;;;;;;39.22;22.80;;;;;;;;;;5051156;28;20477;-60
2022/03/20 15:55:04;;;;;;;36.40;24.50;;;;;;;;;;5084068;28;20075;-60
2022/03/20 15:57:30;;;;;;;35.88;24.27;;;;;;;;;;5092876;28;20048;-60
2022/03/20 15:59:58;;;;;;;37.90;24.02;;;;;;;;;;5071316;28;20154;-61
2022/03/20 16:02:25;;;;;;;36.50;22.90;;;;;;;;;;5070540;28;20048;-60
2022/03/20 16:04:54;;;;;;;37.03;24.05;;;;;;;;;;5051666;28;20029;-60
2022/03/20 16:07:20;;;;;;;39.00;25.65;;;;;;;;;;5069184;28;20483;-61
2022/03/20 16:09:46;;;;;;;35.65;23.27;;;;;;;;;;5071603;28;20195;-61
2022/03/20 16:12:12;;;;;;;36.40;24.92;;;;;;;;;;5071323;28;20128;-61
2022/03/20 16:14:42;;;;;;;42.33;27.17;;;;;;;;;;5065478;28;20527;-61
2022/03/20 16:17:09;;;;;;;36.88;26.80;;;;;;;;;;5064138;28;20045;-61
2022/03/20 16:19:35;;;;;;;38.25;28.42;;;;;;;;;;5063089;28;20041;-61
2022/03/20 16:22:02;;;;;;;39.65;28.25;;;;;;;;;;5077044;28;20044;-61
2022/03/20 16:29:58;;;;;;;46.55;31.02;;;;;;;;;;5069071;28;20087;-61
2022/03/20 16:32:24;;;;;;;45.85;30.92;;;;;;;;;;5054067;28;20144;-61
2022/03/20 16:34:50;;;;;;;48.90;32.08;;;;;;;;;;5071820;28;20107;-61
2022/03/20 16:37:17;;;;;;;45.35;31.73;;;;;;;;;;5053248;28;20109;-61
2022/03/20 16:39:43;;;;;;;47.70;32.75;;;;;;;;;;5054060;28;20040;-61
2022/03/20 16:42:10;;;;;;;47.72;32.08;;;;;;;;;;5074264;28;20493;-61
2022/03/20 16:44:36;;;;;;;49.15;34.85;;;;;;;;;;5090614;28;20119;-61
2022/03/20 16:47:04;;;;;;;48.70;35.03;;;;;;;;;;5085852;28;20056;-61
2022/03/20 16:49:31;;;;;;;46.78;33.08;;;;;;;;;;5067156;28;20135;-61
2022/03/20 16:51:57;;;;;;;51.03;35.47;;;;;;;;;;5066260;28;20472;-61
2022/03/20 16:54:24;;;;;;;53.30;36.55;;;;;;;;;;5066379;28;20037;-61
2022/03/20 16:56:51;;;;;;;50.25;34.20;;;;;;;;;;5052000;28;20052;-61
2022/03/20 16:59:17;;;;;;;52.60;35.75;;;;;;;;;;5073525;28;20044;-61
2022/03/20 17:01:44;;;;;;;52.20;36.53;;;;;;;;;;5075214;28;20122;-61
2022/03/20 17:04:10;;;;;;;55.38;36.75;;;;;;;;;;5067323;28;20040;-61
2022/03/20 17:06:37;;;;;;;58.10;38.63;;;;;;;;;;5054544;28;20095;-61
2022/03/20 17:09:03;;;;;;;57.15;38.35;;;;;;;;;;5053478;28;20568;-61
2022/03/20 17:11:32;;;;;;;54.25;38.78;;;;;;;;;;5068195;28;20404;-61
2022/03/20 17:13:58;;;;;;;53.28;36.17;;;;;;;;;;5064466;28;20032;-61
2022/03/20 17:16:24;;;;;;;54.15;38.38;;;;;;;;;;5064449;28;20052;-61
2022/03/20 17:18:51;;;;;;;59.20;39.38;;;;;;;;;;5071896;28;20036;-61
2022/03/20 17:21:17;;;;;;;56.38;39.05;;;;;;;;;;5071374;28;20411;-61
2022/03/20 17:23:43;;;;;;;57.35;39.00;;;;;;;;;;5052045;28;20048;-61
2022/03/20 17:26:10;;;;;;;60.40;39.65;;;;;;;;;;5071162;28;20420;-61
2022/03/20 17:28:37;;;;;;;61.78;40.88;;;;;;;;;;5068678;28;20120;-61
2022/03/20 17:31:04;;;;;;;63.58;41.15;;;;;;;;;;5072856;28;20060;-61
2022/03/20 17:33:32;;;;;;;57.90;39.20;;;;;;;;;;5068690;28;20051;-61
2022/03/20 17:35:59;;;;;;;69.65;42.90;;;;;;;;;;5049528;28;20044;-61
2022/03/20 17:38:26;;;;;;;69.85;45.13;;;;;;;;;;5064564;28;20055;-61
2022/03/20 17:40:52;;;;;;;66.55;44.22;;;;;;;;;;5067767;28;21355;-61
2022/03/20 17:43:19;;;;;;;66.43;43.17;;;;;;;;;;5053856;28;20557;-61
2022/03/20 17:45:45;;;;;;;70.85;43.58;;;;;;;;;;5068092;28;20040;-61
2022/03/20 17:48:11;;;;;;;63.45;40.15;;;;;;;;;;5065852;28;20116;-61
2022/03/20 17:50:38;;;;;;;64.80;42.80;;;;;;;;;;5069842;28;20052;-61
2022/03/20 17:53:05;;;;;;;64.75;43.47;;;;;;;;;;5067626;28;20076;-61
2022/03/20 17:55:31;;;;;;;64.13;42.28;;;;;;;;;;5067841;28;20044;-62
2022/03/20 17:57:57;;;;;;;69.95;44.10;;;;;;;;;;5097761;28;20581;-65
2022/03/20 18:00:24;;;;;;;70.90;44.38;;;;;;;;;;5055986;28;20060;-62
2022/03/20 18:08:20;;;;;;;65.90;43.40;;;;;;;;;;5079876;28;20089;-61
2022/03/20 18:10:51;;;;;;;70.93;44.90;;;;;;;;;;5093355;28;20416;-61
2022/03/20 18:13:17;;;;;;;62.83;42.05;;;;;;;;;;5060986;28;20355;-61
2022/03/20 18:15:44;;;;;;;67.43;41.92;;;;;;;;;;5073332;28;20486;-61
2022/03/20 18:18:11;;;;;;;63.90;41.60;;;;;;;;;;5039594;28;20051;-61
2022/03/20 18:20:37;;;;;;;66.78;41.33;;;;;;;;;;5069338;28;20071;-61
2022/03/20 18:23:04;;;;;;;58.95;40.13;;;;;;;;;;5052063;28;20120;-61
2022/03/20 18:25:32;;;;;;;56.10;39.63;;;;;;;;;;5049709;28;20041;-60
2022/03/20 18:27:59;;;;;;;66.45;40.08;;;;;;;;;;5066540;28;20037;-61
2022/03/20 18:30:27;;;;;;;59.83;38.83;;;;;;;;;;5046727;28;20057;-61
2022/03/20 18:32:53;;;;;;;56.67;38.83;;;;;;;;;;5052899;28;20056;-61
2022/03/20 18:35:22;;;;;;;61.65;39.28;;;;;;;;;;5046702;28;20049;-61
2022/03/20 18:37:49;;;;;;;59.97;38.67;;;;;;;;;;5066391;28;20064;-60
2022/03/20 18:40:18;;;;;;;55.97;37.75;;;;;;;;;;5045099;28;20041;-61
2022/03/20 18:42:44;;;;;;;60.22;38.90;;;;;;;;;;5047965;28;20167;-61
2022/03/20 18:45:10;;;;;;;57.65;38.40;;;;;;;;;;5048029;28;20048;-61
2022/03/20 18:47:37;;;;;;;62.20;38.88;;;;;;;;;;5052796;28;20045;-61
2022/03/20 18:50:08;;;;;;;62.65;38.80;;;;;;;;;;5043767;28;20541;-61
2022/03/20 18:52:35;;;;;;;61.45;39.38;;;;;;;;;;5045719;28;20254;-60
2022/03/20 18:55:01;;;;;;;57.67;38.95;;;;;;;;;;5046167;28;20051;-61
2022/03/20 18:57:27;;;;;;;62.78;39.20;;;;;;;;;;5047270;28;20119;-60
2022/03/20 18:59:53;;;;;;;60.60;41.05;;;;;;;;;;5046975;28;20044;-60
2022/03/20 19:02:19;;;;;;;60.00;39.67;;;;;;;;;;5040370;28;20049;-61
2022/03/20 19:04:46;;;;;;;58.25;40.15;;;;;;;;;;5043117;28;20435;-61
2022/03/20 19:07:13;;;;;;;61.03;39.83;;;;;;;;;;5042768;28;20056;-60
2022/03/20 19:09:39;;;;;;;65.38;41.65;;;;;;;;;;5072270;28;20048;-60
2022/03/20 19:12:06;;;;;;;65.20;42.22;;;;;;;;;;5042104;28;20049;-60
2022/03/20 19:14:33;;;;;;;64.03;41.30;;;;;;;;;;5078747;28;20045;-60
2022/03/20 19:16:59;;;;;;;65.88;44.42;;;;;;;;;;5048113;28;20051;-61
2022/03/20 19:19:25;;;;;;;68.75;45.22;;;;;;;;;;5043400;28;20036;-60
2022/03/20 19:21:52;;;;;;;67.18;42.38;;;;;;;;;;5045727;28;20119;-61
2022/03/20 19:24:18;;;;;;;65.95;42.60;;;;;;;;;;5047135;28;20325;-60
2022/03/20 19:26:45;;;;;;;66.95;43.55;;;;;;;;;;5046786;28;20049;-60
2022/03/20 19:29:11;;;;;;;63.28;42.60;;;;;;;;;;5051334;28;20047;-60
2022/03/20 19:31:38;;;;;;;67.95;43.42;;;;;;;;;;5045649;28;20460;-60
2022/03/20 19:39:54;;;;;;;61.45;41.40;;;;;;;;;;5048335;28;20060;-60
2022/03/20 19:42:22;;;;;;;68.85;44.38;;;;;;;;;;5049021;28;20040;-60
2022/03/20 19:44:49;;;;;;;68.38;43.60;;;;;;;;;;5068688;28;20051;-61
2022/03/20 19:47:15;;;;;;;71.03;44.75;;;;;;;;;;5068002;28;20044;-60
2022/03/20 19:49:42;;;;;;;66.38;41.28;;;;;;;;;;5040476;28;20067;-61
2022/03/20 19:52:08;;;;;;;64.68;45.08;;;;;;;;;;5074402;28;20052;-61
2022/03/20 19:54:35;;;;;;;70.47;45.83;;;;;;;;;;5048159;28;20201;-60
2022/03/20 19:57:02;;;;;;;70.07;45.13;;;;;;;;;;5066446;28;20044;-61
2022/03/20 19:59:28;;;;;;;68.95;46.15;;;;;;;;;;5050231;28;20055;-61
2022/03/20 20:01:54;;;;;;;65.90;44.75;;;;;;;;;;5067809;28;20036;-60
2022/03/20 20:04:21;;;;;;;67.20;45.47;;;;;;;;;;5048791;28;20123;-60
2022/03/20 20:06:47;;;;;;;65.95;44.70;;;;;;;;;;5050570;28;20122;-61
2022/03/20 20:09:17;;;;;;;73.38;48.13;;;;;;;;;;5070104;28;20051;-61
2022/03/20 20:11:44;;;;;;;67.93;44.60;;;;;;;;;;5069017;28;20056;-61
2022/03/20 20:14:48;;;;;;;66.10;44.42;;;;;;;;;;5063379;28;20105;-60
2022/03/20 20:17:03;;;;;;;68.97;46.58;;;;;;;;;;5042299;28;20052;-60
2022/03/20 20:19:30;;;;;;;68.03;43.10;;;;;;;;;;5057933;28;20120;-61
2022/03/20 20:21:57;;;;;;;71.93;47.13;;;;;;;;;;5041569;28;20044;-61
2022/03/20 20:24:23;;;;;;;69.40;45.67;;;;;;;;;;5064316;28;20059;-60
2022/03/20 20:26:49;;;;;;;68.05;42.78;;;;;;;;;;5071797;28;20047;-60
2022/03/20 20:29:15;;;;;;;67.05;42.17;;;;;;;;;;5066443;28;20053;-60
2022/03/20 20:31:42;;;;;;;67.40;44.33;;;;;;;;;;5069457;28;20045;-60
2022/03/20 20:34:09;;;;;;;73.57;45.03;;;;;;;;;;5021024;28;20130;-60
2022/03/20 20:36:36;;;;;;;67.22;43.50;;;;;;;;;;5023082;28;20422;-60
2022/03/20 20:39:03;;;;;;;75.68;45.88;;;;;;;;;;5043522;28;20048;-61
2022/03/20 20:41:29;;;;;;;72.97;45.47;;;;;;;;;;5044181;28;20047;-61
2022/03/20 20:43:56;;;;;;;65.88;44.17;;;;;;;;;;5047604;28;20056;-60
2022/03/20 20:46:22;;;;;;;73.07;45.83;;;;;;;;;;5032889;28;20052;-60
2022/03/20 20:48:48;;;;;;;73.05;45.22;;;;;;;;;;5045445;28;20041;-61
2022/03/20 20:51:15;;;;;;;69.95;45.22;;;;;;;;;;5047322;28;20039;-61
2022/03/20 20:53:42;;;;;;;68.97;44.40;;;;;;;;;;5051771;28;20040;-61
2022/03/20 20:56:08;;;;;;;68.97;46.03;;;;;;;;;;5034264;28;20116;-60
2022/03/20 20:58:35;;;;;;;70.82;46.20;;;;;;;;;;5053165;28;20045;-60
2022/03/20 21:01:05;;;;;;;69.35;43.90;;;;;;;;;;5052467;28;20029;-60
2022/03/20 21:03:32;;;;;;;73.53;45.75;;;;;;;;;;5033869;28;20464;-60
2022/03/20 21:05:58;;;;;;;72.10;44.33;;;;;;;;;;5055569;28;20041;-60
2022/03/20 21:11:09;;;;;;;74.20;46.25;;;;;;;;;;5049576;28;20524;-61
2022/03/20 21:13:37;;;;;;;70.22;45.70;;;;;;;;;;5065530;28;20107;-60
2022/03/20 21:16:05;;;;;;;75.03;46.47;;;;;;;;;;5051042;28;20088;-60
2022/03/20 21:18:32;;;;;;;73.20;44.60;;;;;;;;;;5036569;28;20059;-60
2022/03/20 21:20:58;;;;;;;78.40;46.95;;;;;;;;;;5066987;28;20443;-60
2022/03/20 21:23:27;;;;;;;75.18;45.85;;;;;;;;;;5036565;28;20211;-61
2022/03/20 21:25:54;;;;;;;71.30;44.10;;;;;;;;;;5051813;28;20507;-60
2022/03/20 21:28:21;;;;;;;70.10;42.65;;;;;;;;;;5051696;28;20540;-60
2022/03/20 21:30:48;;;;;;;70.78;43.55;;;;;;;;;;5065858;28;20049;-61
2022/03/20 21:33:15;;;;;;;66.07;43.55;;;;;;;;;;5050963;28;20060;-60
2022/03/20 21:35:41;;;;;;;68.22;43.03;;;;;;;;;;5051774;28;20056;-61
2022/03/20 21:38:10;;;;;;;71.68;45.60;;;;;;;;;;5030658;28;20060;-60
2022/03/20 21:40:39;;;;;;;73.35;45.63;;;;;;;;;;5047343;28;20105;-60
2022/03/20 21:43:05;;;;;;;82.18;49.10;;;;;;;;;;5063695;28;20060;-60
2022/03/20 21:45:32;;;;;;;75.78;46.35;;;;;;;;;;5048073;28;20414;-60
2022/03/20 21:47:58;;;;;;;79.72;47.28;;;;;;;;;;5048296;28;20076;-60
2022/03/20 21:50:24;;;;;;;79.47;45.83;;;;;;;;;;5030949;28;20476;-60
2022/03/20 21:52:50;;;;;;;72.57;45.63;;;;;;;;;;5048254;28;20040;-60
2022/03/20 21:55:17;;;;;;;81.72;48.00;;;;;;;;;;5046738;28;20083;-60
2022/03/20 21:57:43;;;;;;;74.43;44.63;;;;;;;;;;5047548;28;20195;-60
2022/03/20 22:00:12;;;;;;;73.45;44.58;;;;;;;;;;5046561;28;20471;-60
2022/03/20 22:02:39;;;;;;;72.32;44.40;;;;;;;;;;5047350;28;20094;-60
2022/03/20 22:05:05;;;;;;;80.75;48.97;;;;;;;;;;5062647;28;20132;-60
2022/03/20 22:07:32;;;;;;;81.53;47.97;;;;;;;;;;5048282;28;20102;-60
2022/03/20 22:09:58;;;;;;;84.47;48.67;;;;;;;;;;5048610;28;20127;-60
2022/03/20 22:12:24;;;;;;;80.57;50.10;;;;;;;;;;5030851;28;20044;-60
2022/03/20 22:14:50;;;;;;;81.78;47.50;;;;;;;;;;5062381;28;20128;-60
2022/03/20 22:17:16;;;;;;;77.68;47.72;;;;;;;;;;5034005;28;20384;-60
2022/03/20 22:19:46;;;;;;;78.35;49.35;;;;;;;;;;5048384;28;20029;-60
2022/03/20 22:22:12;;;;;;;78.95;48.53;;;;;;;;;;5051201;28;20103;-61
2022/03/20 22:24:38;;;;;;;78.43;47.45;;;;;;;;;;5051587;28;20437;-60
2022/03/20 22:27:05;;;;;;;85.88;51.97;;;;;;;;;;5050464;28;20041;-60
2022/03/20 22:29:31;;;;;;;73.95;47.13;;;;;;;;;;5013645;28;20136;-60
2022/03/20 22:31:57;;;;;;;78.95;46.55;;;;;;;;;;5032301;28;20571;-60
2022/03/20 22:34:23;;;;;;;79.78;46.88;;;;;;;;;;5031874;28;20416;-60
2022/03/20 22:39:34;;;;;;;79.07;48.78;;;;;;;;;;5031902;28;20042;-60
2022/03/20 22:42:02;;;;;;;83.07;51.08;;;;;;;;;;5062531;28;20064;-60
2022/03/20 22:44:28;;;;;;;78.25;47.47;;;;;;;;;;5030039;28;20503;-60
2022/03/20 22:46:54;;;;;;;72.90;44.97;;;;;;;;;;5031224;28;20116;-60
2022/03/20 22:52:06;;;;;;;86.57;49.58;;;;;;;;;;5063726;28;20050;-61
2022/03/20 22:54:32;;;;;;;90.43;51.63;;;;;;;;;;5030652;28;20045;-61
2022/03/20 22:56:58;;;;;;;86.60;53.75;;;;;;;;;;5027509;28;20038;-60
2022/03/20 22:59:25;;;;;;;97.15;56.75;;;;;;;;;;5030936;28;20045;-60
2022/03/20 23:01:51;;;;;;;84.95;52.70;;;;;;;;;;5062072;28;20041;-60
2022/03/20 23:04:18;;;;;;;91.50;54.60;;;;;;;;;;5029720;28;20049;-60
2022/03/20 23:06:45;;;;;;;90.97;51.88;;;;;;;;;;5031376;28;20374;-60
2022/03/20 23:09:11;;;;;;;92.55;53.20;;;;;;;;;;5029893;28;20049;-60
2022/03/20 23:11:41;;;;;;;100.20;56.25;;;;;;;;;;5030057;28;20046;-60
2022/03/20 23:14:07;;;;;;;93.80;53.72;;;;;;;;;;5062378;28;20061;-60
2022/03/20 23:16:35;;;;;;;90.78;53.58;;;;;;;;;;5029376;28;20077;-60
2022/03/20 23:19:01;;;;;;;90.93;54.28;;;;;;;;;;5028012;28;20480;-60
2022/03/20 23:21:29;;;;;;;93.22;53.63;;;;;;;;;;5027389;28;20037;-60
2022/03/20 23:23:55;;;;;;;96.05;53.45;;;;;;;;;;5024185;28;20045;-60
2022/03/20 23:26:22;;;;;;;92.90;56.28;;;;;;;;;;5030416;28;20048;-60
2022/03/20 23:28:48;;;;;;;95.38;55.20;;;;;;;;;;5062633;28;20053;-61
2022/03/20 23:31:16;;;;;;;89.43;53.83;;;;;;;;;;5049583;28;20048;-60
2022/03/20 23:33:42;;;;;;;83.15;49.58;;;;;;;;;;5065349;28;20051;-60
2022/03/20 23:36:09;;;;;;;79.60;48.05;;;;;;;;;;5050592;28;20045;-60
2022/03/20 23:38:35;;;;;;;75.90;46.63;;;;;;;;;;5049359;28;20036;-60
2022/03/20 23:43:46;;;;;;;85.03;51.28;;;;;;;;;;5049090;28;20041;-60
2022/03/20 23:46:13;;;;;;;96.07;53.95;;;;;;;;;;5031089;28;20047;-60
2022/03/20 23:48:40;;;;;;;96.70;53.95;;;;;;;;;;5049843;28;20036;-60
2022/03/20 23:51:08;;;;;;;94.22;56.50;;;;;;;;;;5049276;28;20442;-60
2022/03/20 23:53:34;;;;;;;90.75;53.10;;;;;;;;;;5063697;28;20457;-60
2022/03/20 23:56:00;;;;;;;91.03;54.17;;;;;;;;;;5064949;28;20049;-60
2022/03/20 23:58:26;;;;;;;92.55;53.38;;;;;;;;;;5048807;28;20072;-60
